Weather at Campo di Volo Albatros

Public forecast

Using degrees Celsius for public forecast. Weather courtesy of forecast.io.

Closest aviation weather report (METAR) to Campo di Volo Albatros

Closest report is Falcone–Borsellino Airport, 34.4 nm (63.8 km) WNW. Retrieved 2020/11/24 17:20 UTC (20 minutes ago):

LICJ 241720Z 35011KT 9999 BKN035 18/14 Q1022

Closest aviation forecast (TAF) to Campo di Volo Albatros

Closest forecast is Falcone–Borsellino Airport, 34.4 nm (63.8 km) WNW. Retrieved 2020/11/24 12:22 UTC (5 hours ago):

TAF LICJ 241100Z 2412/2512 04013KT 9999 BKN020 TEMPO 2412/2418 4000 SHRA BECMG 2417/2419 VRB05KT TEMPO 2418/2422 4000 TSRA